Time;durP1;ratioP1;P1;durP2;ratioP2;P2;SDS_P1;SDS_P2;PMS_P1;PMS_P2;Temp;Humidity;BMP_temperature;BMP_pressure;BME280_temperature;BME280_humidity;BME280_pressure;Samples;Min_cycle;Max_cycle;Signal;HPM_P1;HPM_P2
2023/09/07 00:01:08;;;;;;;11.10;5.00;;;;;;;;;;5013688;28;20421;-74
2023/09/07 00:03:34;;;;;;;8.20;4.40;;;;;;;;;;5015644;28;20034;-74
2023/09/07 00:06:00;;;;;;;7.85;4.93;;;;;;;;;;5015215;28;20121;-73
2023/09/07 00:08:26;;;;;;;11.27;4.80;;;;;;;;;;5017352;28;20018;-73
2023/09/07 00:10:52;;;;;;;7.95;4.50;;;;;;;;;;5018079;28;20041;-73
2023/09/07 00:13:18;;;;;;;8.68;4.72;;;;;;;;;;5015475;28;20022;-73
2023/09/07 00:15:44;;;;;;;8.95;4.53;;;;;;;;;;5014437;28;20381;-73
2023/09/07 00:18:10;;;;;;;8.02;5.03;;;;;;;;;;5014507;28;20026;-73
2023/09/07 00:20:36;;;;;;;9.45;4.75;;;;;;;;;;5014483;28;20413;-74
2023/09/07 00:23:03;;;;;;;9.45;5.40;;;;;;;;;;5014154;28;20030;-73
2023/09/07 00:25:29;;;;;;;10.10;5.35;;;;;;;;;;5014518;28;20025;-74
2023/09/07 00:27:55;;;;;;;9.75;5.28;;;;;;;;;;5014646;28;20018;-73
2023/09/07 00:30:21;;;;;;;11.07;5.13;;;;;;;;;;5014683;28;20646;-73
2023/09/07 00:32:47;;;;;;;10.07;4.78;;;;;;;;;;5014014;28;20080;-73
2023/09/07 00:35:13;;;;;;;8.65;4.47;;;;;;;;;;5014057;28;20046;-74
2023/09/07 00:37:40;;;;;;;6.82;4.45;;;;;;;;;;5014447;28;20033;-73
2023/09/07 00:40:08;;;;;;;6.47;4.50;;;;;;;;;;5015078;28;20022;-74
2023/09/07 00:42:35;;;;;;;9.55;4.43;;;;;;;;;;5015439;28;20036;-75
2023/09/07 00:45:01;;;;;;;6.47;4.88;;;;;;;;;;5016139;28;20026;-73
2023/09/07 00:47:27;;;;;;;7.20;4.72;;;;;;;;;;5014424;28;20160;-74
2023/09/07 00:49:53;;;;;;;8.45;4.80;;;;;;;;;;5015506;28;20731;-73
2023/09/07 00:52:19;;;;;;;7.60;4.70;;;;;;;;;;5014997;28;20026;-73
2023/09/07 00:54:45;;;;;;;6.38;4.57;;;;;;;;;;5015540;28;20036;-72
2023/09/07 00:57:11;;;;;;;8.13;4.43;;;;;;;;;;5014164;28;20037;-74
2023/09/07 00:59:37;;;;;;;8.57;4.90;;;;;;;;;;5015611;28;20030;-74
2023/09/07 01:02:05;;;;;;;10.50;4.95;;;;;;;;;;5015101;28;20077;-75
2023/09/07 01:04:32;;;;;;;14.55;5.20;;;;;;;;;;5015293;28;20032;-73
2023/09/07 01:07:02;;;;;;;10.85;4.53;;;;;;;;;;5012469;28;20072;-74
2023/09/07 01:09:40;;;;;;;11.18;4.82;;;;;;;;;;5013597;28;20030;-74
2023/09/07 01:12:10;;;;;;;8.63;5.03;;;;;;;;;;5012238;28;20048;-73
2023/09/07 01:14:36;;;;;;;14.32;5.38;;;;;;;;;;5013363;28;20030;-74
2023/09/07 01:17:02;;;;;;;9.82;5.00;;;;;;;;;;5013427;28;20117;-73
2023/09/07 01:19:28;;;;;;;6.20;4.70;;;;;;;;;;5013293;28;20026;-74
2023/09/07 01:21:54;;;;;;;9.00;4.18;;;;;;;;;;5013070;28;20030;-73
2023/09/07 01:24:21;;;;;;;8.15;4.95;;;;;;;;;;5012903;28;20378;-73
2023/09/07 01:26:49;;;;;;;12.07;4.30;;;;;;;;;;5013249;28;20022;-73
2023/09/07 01:29:19;;;;;;;6.82;4.70;;;;;;;;;;5013304;28;20394;-73
2023/09/07 01:31:45;;;;;;;5.65;4.40;;;;;;;;;;5013064;28;20026;-73
2023/09/07 01:34:11;;;;;;;7.13;4.60;;;;;;;;;;5012670;28;20037;-74
2023/09/07 01:36:37;;;;;;;5.55;4.30;;;;;;;;;;5013525;28;20065;-74
2023/09/07 01:39:08;;;;;;;7.25;4.32;;;;;;;;;;5015343;28;20032;-73
2023/09/07 01:41:34;;;;;;;5.07;4.20;;;;;;;;;;5013954;28;20433;-74
2023/09/07 01:44:00;;;;;;;6.15;4.43;;;;;;;;;;5015276;28;20053;-74
2023/09/07 01:46:26;;;;;;;11.35;4.97;;;;;;;;;;5013545;28;20033;-73
2023/09/07 01:48:52;;;;;;;6.40;4.20;;;;;;;;;;5012810;28;20417;-74
2023/09/07 01:51:18;;;;;;;8.13;4.57;;;;;;;;;;5012717;28;20029;-72
2023/09/07 01:53:44;;;;;;;7.32;4.45;;;;;;;;;;5012489;28;20113;-74
2023/09/07 01:56:10;;;;;;;8.85;4.20;;;;;;;;;;5012745;28;20540;-73
2023/09/07 01:58:37;;;;;;;7.25;4.43;;;;;;;;;;5013766;28;20080;-73
2023/09/07 02:01:03;;;;;;;6.35;4.28;;;;;;;;;;5014243;28;20037;-73
2023/09/07 02:03:29;;;;;;;6.60;4.32;;;;;;;;;;5013287;28;20033;-72
2023/09/07 02:05:55;;;;;;;9.05;4.63;;;;;;;;;;5012456;28;20021;-74
2023/09/07 02:08:21;;;;;;;8.40;4.30;;;;;;;;;;5012391;28;20029;-75
2023/09/07 02:10:47;;;;;;;10.00;4.72;;;;;;;;;;5012483;28;20036;-74
2023/09/07 02:13:13;;;;;;;10.25;4.80;;;;;;;;;;5012223;28;20034;-74
2023/09/07 02:15:40;;;;;;;13.70;4.97;;;;;;;;;;5012480;28;20108;-73
2023/09/07 02:18:06;;;;;;;9.50;4.28;;;;;;;;;;5011335;28;20032;-74
2023/09/07 02:20:32;;;;;;;7.03;4.45;;;;;;;;;;5012737;28;20512;-74
2023/09/07 02:22:59;;;;;;;7.50;4.40;;;;;;;;;;5012549;28;20491;-73
2023/09/07 02:25:25;;;;;;;12.25;4.80;;;;;;;;;;5012443;28;20021;-73
2023/09/07 02:27:51;;;;;;;7.00;4.30;;;;;;;;;;5012209;28;20026;-74
2023/09/07 02:30:17;;;;;;;7.15;4.38;;;;;;;;;;5012217;28;20258;-74
2023/09/07 02:32:43;;;;;;;5.18;4.30;;;;;;;;;;5012378;28;20055;-73
2023/09/07 02:35:09;;;;;;;7.15;4.95;;;;;;;;;;5011957;28;20532;-74
2023/09/07 02:37:38;;;;;;;10.55;4.90;;;;;;;;;;5012035;28;20049;-74
2023/09/07 02:40:07;;;;;;;9.00;5.15;;;;;;;;;;5012069;28;20022;-74
2023/09/07 02:42:34;;;;;;;9.77;4.85;;;;;;;;;;5012342;28;20022;-74
2023/09/07 02:45:00;;;;;;;9.52;4.72;;;;;;;;;;5025520;28;20414;-74
2023/09/07 02:47:26;;;;;;;9.68;4.88;;;;;;;;;;5011930;28;20115;-73
2023/09/07 02:49:52;;;;;;;8.93;5.75;;;;;;;;;;5011730;28;20030;-74
2023/09/07 02:52:18;;;;;;;12.65;7.45;;;;;;;;;;5011471;28;20037;-74
2023/09/07 02:54:44;;;;;;;9.27;5.57;;;;;;;;;;5011875;28;20030;-73
2023/09/07 02:57:10;;;;;;;7.05;5.18;;;;;;;;;;5011276;28;20498;-73
2023/09/07 02:59:36;;;;;;;7.78;4.07;;;;;;;;;;5023042;28;20042;-73
2023/09/07 03:02:02;;;;;;;9.95;4.78;;;;;;;;;;5011855;28;20037;-73
2023/09/07 03:04:28;;;;;;;9.43;4.97;;;;;;;;;;5012989;28;20052;-76
2023/09/07 03:06:54;;;;;;;8.25;5.05;;;;;;;;;;5012463;28;20018;-72
2023/09/07 03:09:19;;;;;;;8.82;5.15;;;;;;;;;;5012556;28;20113;-72
2023/09/07 03:11:46;;;;;;;7.68;4.90;;;;;;;;;;5011898;28;20080;-74
2023/09/07 03:14:12;;;;;;;7.13;5.03;;;;;;;;;;5011580;28;20030;-77
2023/09/07 03:16:38;;;;;;;9.98;5.35;;;;;;;;;;5011821;28;20481;-72
2023/09/07 03:19:04;;;;;;;9.80;6.10;;;;;;;;;;5011719;28;20037;-73
2023/09/07 03:21:30;;;;;;;12.15;6.03;;;;;;;;;;5012923;28;20080;-73
2023/09/07 03:23:57;;;;;;;9.85;5.53;;;;;;;;;;5012409;28;20045;-74
2023/09/07 03:26:24;;;;;;;12.68;5.68;;;;;;;;;;5012120;28;20026;-73
2023/09/07 03:28:51;;;;;;;9.98;5.68;;;;;;;;;;5011805;28;20061;-72
2023/09/07 03:31:17;;;;;;;7.90;5.55;;;;;;;;;;5012894;28;20037;-72
2023/09/07 03:33:43;;;;;;;8.20;5.20;;;;;;;;;;5012877;28;20034;-73
2023/09/07 03:36:10;;;;;;;8.80;5.55;;;;;;;;;;5015960;28;20108;-72
2023/09/07 03:38:37;;;;;;;11.40;5.90;;;;;;;;;;5015811;28;20022;-73
2023/09/07 03:41:02;;;;;;;9.60;5.97;;;;;;;;;;5015674;28;20500;-72
2023/09/07 03:43:28;;;;;;;12.43;5.95;;;;;;;;;;5014892;28;20025;-73
2023/09/07 03:45:54;;;;;;;11.98;6.03;;;;;;;;;;5015259;28;20460;-73
2023/09/07 03:48:20;;;;;;;9.30;6.20;;;;;;;;;;5015330;28;20041;-72
2023/09/07 03:50:46;;;;;;;10.63;5.70;;;;;;;;;;5015656;28;20026;-74
2023/09/07 03:53:12;;;;;;;10.98;6.38;;;;;;;;;;5015405;28;20033;-73
2023/09/07 03:55:42;;;;;;;11.70;6.25;;;;;;;;;;5015602;28;20081;-73
2023/09/07 03:58:09;;;;;;;9.18;6.25;;;;;;;;;;5015728;28;20425;-73
2023/09/07 04:00:38;;;;;;;9.70;6.32;;;;;;;;;;5016371;28;20083;-72
2023/09/07 04:03:04;;;;;;;8.15;6.20;;;;;;;;;;5016071;28;20546;-73
2023/09/07 04:05:30;;;;;;;10.73;6.53;;;;;;;;;;5016674;28;20038;-73
2023/09/07 04:07:57;;;;;;;11.13;6.72;;;;;;;;;;5015940;28;20032;-73
2023/09/07 04:10:23;;;;;;;12.77;7.20;;;;;;;;;;5016966;28;20013;-72
2023/09/07 04:12:49;;;;;;;12.35;5.93;;;;;;;;;;5016975;28;20048;-72
2023/09/07 04:15:15;;;;;;;12.50;6.82;;;;;;;;;;5018697;28;20465;-74
2023/09/07 04:17:41;;;;;;;13.35;7.20;;;;;;;;;;5016663;28;20045;-72
2023/09/07 04:20:08;;;;;;;15.52;7.60;;;;;;;;;;5021558;28;20040;-72
2023/09/07 04:22:35;;;;;;;14.63;7.40;;;;;;;;;;5028639;28;20181;-73
2023/09/07 04:25:01;;;;;;;12.43;7.65;;;;;;;;;;5023262;28;20489;-73
2023/09/07 04:27:27;;;;;;;13.77;7.25;;;;;;;;;;5018376;28;20026;-72
2023/09/07 04:29:53;;;;;;;13.70;7.68;;;;;;;;;;5017714;28;20099;-73
2023/09/07 04:32:19;;;;;;;12.80;7.22;;;;;;;;;;5019979;28;20021;-74
2023/09/07 04:34:46;;;;;;;11.98;7.13;;;;;;;;;;5019433;28;20037;-72
2023/09/07 04:37:12;;;;;;;16.67;7.80;;;;;;;;;;5019253;28;20378;-73
2023/09/07 04:39:39;;;;;;;16.42;7.53;;;;;;;;;;5017770;28;20104;-75
2023/09/07 04:42:05;;;;;;;15.15;8.35;;;;;;;;;;5013588;28;20481;-73
2023/09/07 04:44:31;;;;;;;15.38;8.32;;;;;;;;;;5013770;28;20037;-73
2023/09/07 04:46:57;;;;;;;12.73;8.02;;;;;;;;;;5013763;28;20049;-73
2023/09/07 04:49:24;;;;;;;9.40;6.70;;;;;;;;;;5014486;28;20037;-76
2023/09/07 04:51:53;;;;;;;11.10;6.78;;;;;;;;;;5014229;28;20034;-73
2023/09/07 04:54:19;;;;;;;11.77;7.13;;;;;;;;;;5015859;28;20025;-73
2023/09/07 04:56:45;;;;;;;11.20;6.97;;;;;;;;;;5019734;28;20022;-77
2023/09/07 04:59:11;;;;;;;12.45;7.43;;;;;;;;;;5023148;28;20381;-74
2023/09/07 05:01:37;;;;;;;15.93;7.47;;;;;;;;;;5017739;28;20026;-74
2023/09/07 05:04:03;;;;;;;10.98;7.28;;;;;;;;;;5013043;28;20060;-74
2023/09/07 05:06:29;;;;;;;16.85;8.82;;;;;;;;;;5013438;28;20080;-75
2023/09/07 05:08:55;;;;;;;12.43;7.85;;;;;;;;;;5013339;28;20033;-75
2023/09/07 05:11:21;;;;;;;11.07;6.55;;;;;;;;;;5013086;28;20026;-74
2023/09/07 05:13:47;;;;;;;13.07;7.75;;;;;;;;;;5012675;28;20037;-73
2023/09/07 05:16:13;;;;;;;14.98;8.70;;;;;;;;;;5013479;28;20062;-73
2023/09/07 05:18:41;;;;;;;16.23;7.72;;;;;;;;;;5013094;28;20041;-73
2023/09/07 05:21:14;;;;;;;11.18;7.45;;;;;;;;;;5013628;28;20030;-73
2023/09/07 05:23:40;;;;;;;12.13;7.35;;;;;;;;;;5012556;28;20026;-73
2023/09/07 05:26:06;;;;;;;14.52;7.93;;;;;;;;;;5013003;28;20544;-74
2023/09/07 05:28:32;;;;;;;10.77;7.88;;;;;;;;;;5013073;28;20106;-75
2023/09/07 05:30:58;;;;;;;14.60;8.05;;;;;;;;;;5012958;28;20025;-73
2023/09/07 05:33:24;;;;;;;18.30;9.32;;;;;;;;;;5013087;28;20098;-73
2023/09/07 05:35:50;;;;;;;11.57;8.68;;;;;;;;;;5015600;28;20034;-73
2023/09/07 05:38:16;;;;;;;15.25;8.88;;;;;;;;;;5016697;28;20041;-76
2023/09/07 05:40:43;;;;;;;14.10;8.20;;;;;;;;;;5016472;28;20026;-79
2023/09/07 05:43:10;;;;;;;11.70;7.38;;;;;;;;;;5016504;28;20057;-74
2023/09/07 05:45:37;;;;;;;15.40;7.95;;;;;;;;;;5016647;28;20535;-74
2023/09/07 05:48:03;;;;;;;14.88;7.47;;;;;;;;;;5013472;28;20026;-74
2023/09/07 05:50:29;;;;;;;12.85;8.20;;;;;;;;;;5013030;28;20054;-74
2023/09/07 05:52:55;;;;;;;12.23;8.20;;;;;;;;;;5015564;28;20034;-76
2023/09/07 05:55:21;;;;;;;11.75;7.75;;;;;;;;;;5015661;28;20036;-74
2023/09/07 05:57:47;;;;;;;19.42;8.10;;;;;;;;;;5016544;28;20029;-75
2023/09/07 06:00:15;;;;;;;20.20;9.00;;;;;;;;;;5014023;28;20037;-75
2023/09/07 06:02:41;;;;;;;16.55;9.45;;;;;;;;;;5014119;28;20026;-74
2023/09/07 06:05:07;;;;;;;12.38;8.00;;;;;;;;;;5013600;28;20029;-75
2023/09/07 06:07:33;;;;;;;16.90;8.68;;;;;;;;;;5014903;28;20113;-73
2023/09/07 06:09:59;;;;;;;15.20;8.10;;;;;;;;;;5014314;28;20054;-75
2023/09/07 06:12:25;;;;;;;13.32;8.02;;;;;;;;;;5012386;28;20489;-74
2023/09/07 06:14:51;;;;;;;14.00;8.98;;;;;;;;;;5012654;28;20109;-75
2023/09/07 06:17:17;;;;;;;14.40;8.02;;;;;;;;;;5012485;28;20058;-74
2023/09/07 06:19:43;;;;;;;14.77;7.70;;;;;;;;;;5012515;28;20030;-75
2023/09/07 06:22:09;;;;;;;12.05;7.80;;;;;;;;;;5012632;28;20052;-74
2023/09/07 06:24:35;;;;;;;17.40;7.68;;;;;;;;;;5012133;28;20018;-75
2023/09/07 06:27:01;;;;;;;11.88;7.65;;;;;;;;;;5012757;28;20499;-74
2023/09/07 06:29:27;;;;;;;15.20;8.02;;;;;;;;;;5010850;28;20025;-74
2023/09/07 06:31:53;;;;;;;11.18;7.35;;;;;;;;;;5012578;28;20017;-74
2023/09/07 06:34:19;;;;;;;15.00;7.85;;;;;;;;;;5012837;28;20041;-73
2023/09/07 06:36:45;;;;;;;13.20;7.93;;;;;;;;;;5013692;28;20029;-74
2023/09/07 06:39:11;;;;;;;15.65;7.78;;;;;;;;;;5012388;28;20473;-73
2023/09/07 06:41:37;;;;;;;19.40;8.32;;;;;;;;;;5012104;28;20030;-74
2023/09/07 06:44:03;;;;;;;14.48;7.30;;;;;;;;;;5012878;28;20049;-75
2023/09/07 06:46:29;;;;;;;17.02;7.68;;;;;;;;;;5016388;28;20030;-77
2023/09/07 06:48:56;;;;;;;17.75;6.90;;;;;;;;;;5010948;28;20061;-73
2023/09/07 06:51:21;;;;;;;23.45;8.70;;;;;;;;;;5014312;28;20029;-74
2023/09/07 06:53:50;;;;;;;14.48;7.10;;;;;;;;;;5012869;28;20095;-75
2023/09/07 06:56:16;;;;;;;18.13;9.57;;;;;;;;;;5016005;28;20018;-73
2023/09/07 06:58:42;;;;;;;18.40;8.10;;;;;;;;;;5014704;28;20037;-74
2023/09/07 07:01:08;;;;;;;15.50;8.65;;;;;;;;;;5012367;28;20034;-73
2023/09/07 07:03:34;;;;;;;11.93;7.57;;;;;;;;;;5012051;28;20083;-74
2023/09/07 07:06:00;;;;;;;15.60;7.63;;;;;;;;;;5011818;28;20029;-73
2023/09/07 07:08:26;;;;;;;12.63;7.28;;;;;;;;;;5012559;28;20081;-74
2023/09/07 07:10:53;;;;;;;10.90;7.80;;;;;;;;;;5014918;28;20026;-74
2023/09/07 07:13:19;;;;;;;13.75;9.50;;;;;;;;;;5016024;28;20022;-73
2023/09/07 07:15:45;;;;;;;18.10;8.25;;;;;;;;;;5016519;28;20037;-75
2023/09/07 07:18:11;;;;;;;15.93;8.20;;;;;;;;;;5016342;28;20456;-74
2023/09/07 07:20:41;;;;;;;11.27;7.35;;;;;;;;;;5015341;28;20057;-73
2023/09/07 07:23:07;;;;;;;11.55;7.30;;;;;;;;;;5014908;28;20030;-75
2023/09/07 07:25:33;;;;;;;17.08;7.72;;;;;;;;;;5015287;28;20030;-72
2023/09/07 07:28:06;;;;;;;22.05;8.20;;;;;;;;;;5014042;28;20026;-72
2023/09/07 07:30:32;;;;;;;10.90;6.60;;;;;;;;;;5015155;28;20053;-72
2023/09/07 07:32:58;;;;;;;14.10;6.10;;;;;;;;;;5014936;28;20477;-73
2023/09/07 07:35:25;;;;;;;14.13;7.80;;;;;;;;;;5015261;28;20044;-72
2023/09/07 07:37:51;;;;;;;11.68;6.75;;;;;;;;;;5015178;28;20034;-74
2023/09/07 07:40:17;;;;;;;11.82;6.55;;;;;;;;;;5015245;28;20539;-76
2023/09/07 07:42:44;;;;;;;15.68;6.30;;;;;;;;;;5017874;28;20057;-77
2023/09/07 07:45:10;;;;;;;13.40;6.43;;;;;;;;;;5016417;28;20032;-72
2023/09/07 07:47:36;;;;;;;12.15;5.72;;;;;;;;;;5017153;28;20584;-72
2023/09/07 07:50:03;;;;;;;10.52;5.75;;;;;;;;;;5019073;28;20113;-74
2023/09/07 07:52:29;;;;;;;11.10;6.00;;;;;;;;;;5016964;28;20026;-74
2023/09/07 07:54:55;;;;;;;11.60;6.07;;;;;;;;;;5016642;28;20041;-72
2023/09/07 07:57:21;;;;;;;13.90;7.45;;;;;;;;;;5015570;28;20026;-72
2023/09/07 07:59:47;;;;;;;10.43;6.50;;;;;;;;;;5014949;28;20032;-72
2023/09/07 08:02:13;;;;;;;15.85;6.70;;;;;;;;;;5014367;28;20080;-71
2023/09/07 08:04:39;;;;;;;11.65;6.50;;;;;;;;;;5014730;28;20018;-72
2023/09/07 08:07:06;;;;;;;12.65;6.32;;;;;;;;;;5013560;28;20022;-71
2023/09/07 08:09:33;;;;;;;8.55;5.95;;;;;;;;;;5014483;28;20065;-71
2023/09/07 08:12:02;;;;;;;8.68;5.43;;;;;;;;;;5014641;28;20045;-73
2023/09/07 08:14:28;;;;;;;14.23;5.65;;;;;;;;;;5014639;28;20058;-72
2023/09/07 08:16:54;;;;;;;9.32;5.75;;;;;;;;;;5014576;28;20026;-72
2023/09/07 08:19:20;;;;;;;15.68;5.75;;;;;;;;;;5014446;28;20079;-72
2023/09/07 08:21:47;;;;;;;9.48;5.63;;;;;;;;;;5014331;28;20164;-73
2023/09/07 08:24:13;;;;;;;9.98;5.55;;;;;;;;;;5014238;28;20155;-72
2023/09/07 08:26:39;;;;;;;11.00;5.65;;;;;;;;;;5014316;28;20022;-72
2023/09/07 08:29:05;;;;;;;13.65;5.43;;;;;;;;;;5014311;28;20069;-73
2023/09/07 08:31:35;;;;;;;10.73;5.10;;;;;;;;;;5014742;28;20025;-72
2023/09/07 08:34:03;;;;;;;12.65;5.38;;;;;;;;;;5013087;28;20038;-72
2023/09/07 08:36:32;;;;;;;11.98;5.28;;;;;;;;;;5014997;28;20017;-73
2023/09/07 08:39:00;;;;;;;12.50;5.45;;;;;;;;;;5014899;28;20030;-72
2023/09/07 08:41:27;;;;;;;12.23;5.60;;;;;;;;;;5015263;28;20026;-74
2023/09/07 08:43:54;;;;;;;14.85;6.15;;;;;;;;;;5014281;28;20030;-73
2023/09/07 08:46:21;;;;;;;12.75;5.35;;;;;;;;;;5015361;28;20091;-72
2023/09/07 08:48:48;;;;;;;12.70;6.05;;;;;;;;;;5014665;28;20080;-74
2023/09/07 08:51:15;;;;;;;15.23;5.30;;;;;;;;;;5013573;28;20168;-72
2023/09/07 08:53:45;;;;;;;13.90;5.57;;;;;;;;;;5013343;28;20034;-72
2023/09/07 08:56:11;;;;;;;13.32;5.25;;;;;;;;;;5013792;28;20061;-72
2023/09/07 08:58:37;;;;;;;12.90;5.40;;;;;;;;;;5013630;28;20062;-75
2023/09/07 09:01:03;;;;;;;13.43;4.90;;;;;;;;;;5013590;28;20103;-78
2023/09/07 09:03:30;;;;;;;11.25;4.90;;;;;;;;;;5012669;28;20027;-72
2023/09/07 09:05:57;;;;;;;14.77;5.15;;;;;;;;;;5014342;28;20026;-76
2023/09/07 09:08:24;;;;;;;10.15;5.03;;;;;;;;;;5015424;28;20033;-73
2023/09/07 09:10:58;;;;;;;9.52;5.18;;;;;;;;;;5015258;28;20029;-71
2023/09/07 09:13:28;;;;;;;11.80;5.07;;;;;;;;;;5013359;28;20025;-72
2023/09/07 09:15:54;;;;;;;10.95;4.88;;;;;;;;;;5012838;28;20127;-72
2023/09/07 09:18:20;;;;;;;13.23;4.93;;;;;;;;;;5013498;28;20054;-72
2023/09/07 09:20:46;;;;;;;10.45;4.38;;;;;;;;;;5013293;28;20038;-72
2023/09/07 09:23:13;;;;;;;13.18;4.45;;;;;;;;;;5012735;28;20101;-73
2023/09/07 09:25:41;;;;;;;8.35;4.15;;;;;;;;;;5013448;28;20477;-76
2023/09/07 09:28:09;;;;;;;6.00;4.00;;;;;;;;;;5013450;28;20022;-76
2023/09/07 09:30:35;;;;;;;9.73;4.20;;;;;;;;;;5013329;28;20026;-77
2023/09/07 09:33:02;;;;;;;8.05;4.55;;;;;;;;;;5012858;28;20494;-75
2023/09/07 09:35:29;;;;;;;7.22;4.10;;;;;;;;;;5013184;28;20125;-74
2023/09/07 09:37:55;;;;;;;8.18;4.10;;;;;;;;;;5012896;28;20026;-76
2023/09/07 09:40:21;;;;;;;5.60;4.20;;;;;;;;;;5012791;28;20622;-76
2023/09/07 09:42:48;;;;;;;8.73;4.30;;;;;;;;;;5012212;28;20431;-77
2023/09/07 09:45:14;;;;;;;11.23;4.30;;;;;;;;;;5015105;28;20121;-73
2023/09/07 09:47:43;;;;;;;12.55;4.78;;;;;;;;;;5011380;28;20041;-73
2023/09/07 09:50:10;;;;;;;10.30;4.57;;;;;;;;;;5012762;28;20524;-73
2023/09/07 09:52:37;;;;;;;7.40;4.05;;;;;;;;;;5013037;28;20037;-72
2023/09/07 09:55:07;;;;;;;11.10;4.65;;;;;;;;;;5012796;28;20435;-73
2023/09/07 09:57:34;;;;;;;10.65;4.38;;;;;;;;;;5012627;28;20504;-72
2023/09/07 10:00:06;;;;;;;8.40;4.28;;;;;;;;;;5012544;28;20528;-73
2023/09/07 10:02:33;;;;;;;21.23;3.90;;;;;;;;;;5011765;28;20480;-73
2023/09/07 10:05:00;;;;;;;11.60;3.88;;;;;;;;;;5012432;28;20026;-73
2023/09/07 10:07:40;;;;;;;15.35;4.60;;;;;;;;;;5012260;28;20458;-73
2023/09/07 10:10:09;;;;;;;10.13;4.43;;;;;;;;;;5015073;28;20129;-74
2023/09/07 10:12:40;;;;;;;9.02;4.38;;;;;;;;;;5014656;28;20108;-73
2023/09/07 10:15:06;;;;;;;9.75;4.32;;;;;;;;;;5015800;28;20017;-72
2023/09/07 10:17:33;;;;;;;7.35;4.00;;;;;;;;;;5014692;28;20029;-73
2023/09/07 10:20:05;;;;;;;10.55;4.28;;;;;;;;;;5013778;28;20072;-73
2023/09/07 10:22:31;;;;;;;7.32;4.45;;;;;;;;;;5014102;28;20037;-73
2023/09/07 10:24:58;;;;;;;11.65;4.57;;;;;;;;;;5015303;28;20051;-74
2023/09/07 10:27:24;;;;;;;10.63;4.13;;;;;;;;;;5018217;28;20026;-72
2023/09/07 10:29:53;;;;;;;7.15;3.88;;;;;;;;;;5017478;28;20049;-72
2023/09/07 10:32:19;;;;;;;11.30;3.95;;;;;;;;;;5016567;28;20061;-74
2023/09/07 10:34:45;;;;;;;10.10;3.80;;;;;;;;;;5011892;28;20386;-72
2023/09/07 10:37:15;;;;;;;12.95;4.15;;;;;;;;;;5011894;28;20038;-72
2023/09/07 10:39:44;;;;;;;11.35;4.13;;;;;;;;;;5012061;28;20026;-72
2023/09/07 10:42:26;;;;;;;7.28;3.53;;;;;;;;;;5011283;28;20105;-73
2023/09/07 10:44:53;;;;;;;11.38;3.67;;;;;;;;;;5011105;28;20030;-73
2023/09/07 10:47:19;;;;;;;7.32;3.70;;;;;;;;;;5011909;28;20474;-73
2023/09/07 10:49:45;;;;;;;7.03;3.83;;;;;;;;;;5011894;28;20109;-74
2023/09/07 10:52:11;;;;;;;8.02;3.90;;;;;;;;;;5011542;28;20449;-72
2023/09/07 10:54:37;;;;;;;13.93;4.00;;;;;;;;;;5011948;28;20057;-72
2023/09/07 10:57:10;;;;;;;8.88;3.85;;;;;;;;;;5010492;28;20124;-71
2023/09/07 10:59:35;;;;;;;9.52;4.57;;;;;;;;;;5011462;28;20022;-72
2023/09/07 11:02:05;;;;;;;12.27;4.35;;;;;;;;;;5011504;28;20481;-72
2023/09/07 11:04:31;;;;;;;17.60;3.85;;;;;;;;;;5011311;28;20440;-72
2023/09/07 11:06:57;;;;;;;8.30;3.60;;;;;;;;;;5011777;28;20022;-73
2023/09/07 11:09:23;;;;;;;9.10;3.08;;;;;;;;;;5011674;28;20029;-73
2023/09/07 11:11:49;;;;;;;11.55;3.70;;;;;;;;;;5011521;28;20030;-72
2023/09/07 11:14:15;;;;;;;15.30;3.40;;;;;;;;;;5011373;28;20036;-73
2023/09/07 11:16:43;;;;;;;5.72;3.55;;;;;;;;;;5011609;28;20026;-72
2023/09/07 11:19:09;;;;;;;7.85;3.58;;;;;;;;;;5011496;28;20025;-72
2023/09/07 11:21:35;;;;;;;11.88;3.78;;;;;;;;;;5011289;28;20473;-74
2023/09/07 11:24:05;;;;;;;7.75;3.42;;;;;;;;;;5022153;28;20057;-73
2023/09/07 11:26:41;;;;;;;3.88;3.05;;;;;;;;;;5020543;28;20022;-72
2023/09/07 11:29:07;;;;;;;6.60;3.30;;;;;;;;;;5016422;28;20026;-74
2023/09/07 11:31:33;;;;;;;8.07;3.20;;;;;;;;;;5018551;28;20026;-72
2023/09/07 11:33:59;;;;;;;4.93;3.40;;;;;;;;;;5014567;28;20034;-74
2023/09/07 11:36:25;;;;;;;9.32;3.30;;;;;;;;;;5011566;28;20031;-73
2023/09/07 11:38:51;;;;;;;9.90;3.30;;;;;;;;;;5011303;28;20022;-73
2023/09/07 11:41:17;;;;;;;7.40;3.85;;;;;;;;;;5011316;28;20483;-73
2023/09/07 11:43:45;;;;;;;9.05;3.45;;;;;;;;;;5010814;28;20105;-73
2023/09/07 11:46:11;;;;;;;3.67;3.20;;;;;;;;;;5011599;28;20022;-73
2023/09/07 11:48:37;;;;;;;7.95;2.83;;;;;;;;;;5011198;28;20037;-74
2023/09/07 11:51:03;;;;;;;8.45;3.28;;;;;;;;;;5011258;28;20069;-72
2023/09/07 11:53:29;;;;;;;7.10;3.67;;;;;;;;;;5011299;28;20079;-72
2023/09/07 11:55:56;;;;;;;5.97;3.33;;;;;;;;;;5014611;28;20482;-73
2023/09/07 11:58:24;;;;;;;7.55;3.45;;;;;;;;;;5015129;28;20037;-72
2023/09/07 12:00:50;;;;;;;6.28;2.92;;;;;;;;;;5015339;28;20030;-74
2023/09/07 12:03:16;;;;;;;8.05;3.67;;;;;;;;;;5014986;28;20041;-72
2023/09/07 12:05:44;;;;;;;7.22;3.83;;;;;;;;;;5015049;28;20037;-73
2023/09/07 12:08:10;;;;;;;5.45;2.90;;;;;;;;;;5014460;28;20035;-73
2023/09/07 12:10:36;;;;;;;5.18;2.88;;;;;;;;;;5014800;28;20030;-72
2023/09/07 12:13:02;;;;;;;11.73;3.00;;;;;;;;;;5013917;28;20040;-73
2023/09/07 12:15:28;;;;;;;6.57;3.50;;;;;;;;;;5014614;28;20032;-76
2023/09/07 12:17:55;;;;;;;14.68;9.57;;;;;;;;;;5014594;28;20033;-77
2023/09/07 12:20:21;;;;;;;8.73;3.33;;;;;;;;;;5014293;28;20109;-76
2023/09/07 12:22:48;;;;;;;7.13;2.70;;;;;;;;;;5014541;28;20098;-74
2023/09/07 12:25:15;;;;;;;9.13;3.28;;;;;;;;;;5014348;28;20053;-73
2023/09/07 12:27:43;;;;;;;13.98;3.13;;;;;;;;;;5014500;28;20101;-75
2023/09/07 12:30:12;;;;;;;8.82;3.00;;;;;;;;;;5014757;28;20052;-78
2023/09/07 12:32:38;;;;;;;9.32;3.50;;;;;;;;;;5014828;28;20018;-76
2023/09/07 12:35:08;;;;;;;7.28;3.08;;;;;;;;;;5014454;28;20029;-77
2023/09/07 12:37:34;;;;;;;5.88;2.78;;;;;;;;;;5014911;28;20038;-76
2023/09/07 12:40:00;;;;;;;10.00;2.63;;;;;;;;;;5014272;28;20044;-76
2023/09/07 12:42:26;;;;;;;6.22;2.95;;;;;;;;;;5014291;28;20026;-74
2023/09/07 12:44:52;;;;;;;4.10;3.03;;;;;;;;;;5012817;28;20030;-73
2023/09/07 12:47:18;;;;;;;12.45;3.17;;;;;;;;;;5014031;28;20022;-73
2023/09/07 12:49:44;;;;;;;5.22;3.25;;;;;;;;;;5015501;28;20053;-74
2023/09/07 12:52:11;;;;;;;4.82;3.17;;;;;;;;;;5015414;28;20113;-73
2023/09/07 12:54:37;;;;;;;5.53;3.65;;;;;;;;;;5016129;28;20064;-74
2023/09/07 12:57:04;;;;;;;10.27;3.63;;;;;;;;;;5012730;28;20026;-73
2023/09/07 12:59:30;;;;;;;7.45;3.65;;;;;;;;;;5013157;28;20054;-74
2023/09/07 13:01:56;;;;;;;5.82;3.50;;;;;;;;;;5013102;28;20033;-72
2023/09/07 13:04:22;;;;;;;8.05;3.80;;;;;;;;;;5010307;28;20037;-72
2023/09/07 13:06:48;;;;;;;8.10;3.20;;;;;;;;;;5012800;28;20034;-72
2023/09/07 13:09:14;;;;;;;6.75;3.08;;;;;;;;;;5013294;28;20022;-72
2023/09/07 13:11:40;;;;;;;12.05;3.45;;;;;;;;;;5010307;28;20133;-71
2023/09/07 13:14:08;;;;;;;5.38;3.10;;;;;;;;;;5012483;28;20080;-72
2023/09/07 13:16:34;;;;;;;7.90;3.20;;;;;;;;;;5013008;28;20053;-73
2023/09/07 13:19:00;;;;;;;7.22;3.08;;;;;;;;;;5011595;28;20393;-72
2023/09/07 13:21:26;;;;;;;8.75;3.10;;;;;;;;;;5012784;28;20014;-74
2023/09/07 13:23:52;;;;;;;9.30;3.05;;;;;;;;;;5012440;28;20037;-72
2023/09/07 13:26:18;;;;;;;7.30;3.03;;;;;;;;;;5012831;28;20014;-71
2023/09/07 13:28:44;;;;;;;5.15;3.20;;;;;;;;;;5010993;28;20125;-71
2023/09/07 13:31:10;;;;;;;5.25;3.03;;;;;;;;;;5012847;28;20026;-71
2023/09/07 13:33:36;;;;;;;6.60;3.20;;;;;;;;;;5012330;28;20036;-73
2023/09/07 13:36:02;;;;;;;8.27;3.15;;;;;;;;;;5012727;28;20030;-72
2023/09/07 13:38:28;;;;;;;3.63;2.85;;;;;;;;;;5011076;28;20100;-73
2023/09/07 13:40:54;;;;;;;6.47;3.15;;;;;;;;;;5012256;28;20124;-73
2023/09/07 13:43:20;;;;;;;6.68;3.00;;;;;;;;;;5011825;28;20034;-71
2023/09/07 13:45:46;;;;;;;11.45;3.15;;;;;;;;;;5012179;28;20053;-73
2023/09/07 13:48:13;;;;;;;7.85;3.15;;;;;;;;;;5011919;28;20105;-71
2023/09/07 13:50:39;;;;;;;6.57;3.38;;;;;;;;;;5012694;28;20029;-72
2023/09/07 13:53:05;;;;;;;4.97;2.83;;;;;;;;;;5012221;28;20385;-72
2023/09/07 13:55:31;;;;;;;4.43;3.30;;;;;;;;;;5010836;28;20433;-71
2023/09/07 13:57:57;;;;;;;12.48;2.88;;;;;;;;;;5012424;28;20017;-72
2023/09/07 14:00:23;;;;;;;9.52;3.13;;;;;;;;;;5012373;28;20030;-73
2023/09/07 14:02:49;;;;;;;11.65;3.72;;;;;;;;;;5011951;28;20533;-74
2023/09/07 14:05:15;;;;;;;11.98;7.80;;;;;;;;;;5011968;28;20037;-74
2023/09/07 14:07:41;;;;;;;7.50;2.80;;;;;;;;;;5012022;28;20100;-75
2023/09/07 14:10:07;;;;;;;4.50;3.15;;;;;;;;;;5012569;28;20101;-74
2023/09/07 14:12:34;;;;;;;4.65;3.28;;;;;;;;;;5015963;28;20033;-81
2023/09/07 14:14:59;;;;;;;5.97;3.40;;;;;;;;;;4999078;28;20040;-76
2023/09/07 14:17:25;;;;;;;6.18;3.60;;;;;;;;;;5015437;28;20062;-79
2023/09/07 14:19:51;;;;;;;6.10;3.05;;;;;;;;;;5014003;28;20478;-77
2023/09/07 14:22:17;;;;;;;9.70;3.45;;;;;;;;;;5012985;28;20033;-75
2023/09/07 14:24:43;;;;;;;3.65;3.00;;;;;;;;;;5013246;28;20048;-73
2023/09/07 14:27:09;;;;;;;9.38;3.35;;;;;;;;;;5012075;28;20635;-73
2023/09/07 14:29:36;;;;;;;5.72;3.55;;;;;;;;;;5012789;28;20022;-74
2023/09/07 14:32:03;;;;;;;4.63;3.13;;;;;;;;;;5012115;28;20029;-74